Time;durP1;ratioP1;P1;durP2;ratioP2;P2;SDS_P1;SDS_P2;PMS_P1;PMS_P2;Temp;Humidity;BMP_temperature;BMP_pressure;BME280_temperature;BME280_humidity;BME280_pressure;Samples;Min_cycle;Max_cycle;Signal;HPM_P1;HPM_P2
2021/06/05 00:02:24;;;;;;;3.10;0.90;;;18.10;68.00;;;;;;5136486;27;20083;-78
2021/06/05 00:04:50;;;;;;;1.98;0.65;;;18.00;69.10;;;;;;5113096;28;20099;-78
2021/06/05 00:07:16;;;;;;;2.50;0.68;;;17.90;69.90;;;;;;5094214;28;20024;-78
2021/06/05 00:09:42;;;;;;;1.30;0.55;;;17.80;70.00;;;;;;5112531;28;20042;-79
2021/06/05 00:12:11;;;;;;;2.40;0.73;;;17.80;70.10;;;;;;5112608;28;20023;-79
2021/06/05 00:14:36;;;;;;;2.63;0.80;;;17.80;69.90;;;;;;5112318;28;20047;-78
2021/06/05 00:17:03;;;;;;;1.75;0.80;;;17.80;69.70;;;;;;5112247;28;20150;-77
2021/06/05 00:19:28;;;;;;;0.95;0.60;;;17.80;69.70;;;;;;5112211;28;20454;-78
2021/06/05 00:21:54;;;;;;;3.13;0.98;;;17.70;69.90;;;;;;5112234;28;20057;-77
2021/06/05 00:24:20;;;;;;;1.25;0.68;;;17.70;70.00;;;;;;5112325;28;20031;-78
2021/06/05 00:26:46;;;;;;;2.38;0.65;;;17.70;69.80;;;;;;5112259;28;20125;-77
2021/06/05 00:29:12;;;;;;;0.85;0.70;;;17.60;70.10;;;;;;5112206;28;20043;-77
2021/06/05 00:31:37;;;;;;;1.48;0.60;;;17.60;70.20;;;;;;5112239;28;20027;-78
2021/06/05 00:34:04;;;;;;;1.08;0.50;;;17.60;70.50;;;;;;5112070;28;20026;-78
2021/06/05 00:36:29;;;;;;;1.33;0.52;;;17.50;70.60;;;;;;5115003;28;20031;-78
2021/06/05 00:38:55;;;;;;;1.13;0.65;;;17.50;71.20;;;;;;5115941;28;20031;-78
2021/06/05 00:41:23;;;;;;;1.95;0.88;;;17.50;71.80;;;;;;5115836;28;20023;-77
2021/06/05 00:43:51;;;;;;;3.17;0.50;;;17.50;71.70;;;;;;5115816;28;20514;-77
2021/06/05 00:46:19;;;;;;;2.90;0.50;;;17.50;72.20;;;;;;5115778;28;20358;-78
2021/06/05 00:48:46;;;;;;;1.70;0.73;;;17.40;72.80;;;;;;5097288;28;20152;-77
2021/06/05 00:51:13;;;;;;;1.45;0.65;;;17.50;73.10;;;;;;5115513;28;20027;-79
2021/06/05 00:53:39;;;;;;;1.00;0.50;;;17.60;72.20;;;;;;5115292;28;20063;-78
2021/06/05 00:56:08;;;;;;;1.83;0.70;;;17.70;72.00;;;;;;5115473;28;20016;-77
2021/06/05 00:58:34;;;;;;;0.70;0.60;;;17.70;72.10;;;;;;5115762;28;20024;-78
2021/06/05 01:01:06;;;;;;;0.60;0.47;;;17.80;72.20;;;;;;5115381;28;20096;-78
2021/06/05 01:03:33;;;;;;;1.77;0.60;;;17.80;71.90;;;;;;5115543;28;20077;-77
2021/06/05 01:06:04;;;;;;;2.58;0.60;;;17.90;72.10;;;;;;5115184;28;20028;-78
2021/06/05 01:08:38;;;;;;;3.17;0.60;;;17.90;72.30;;;;;;5115341;28;20391;-78
2021/06/05 01:11:44;;;;;;;0.82;0.57;;;17.80;72.50;;;;;;5115163;28;20528;-78
2021/06/05 01:14:24;;;;;;;1.13;0.60;;;17.80;71.70;;;;;;5115195;28;20023;-76
2021/06/05 01:16:55;;;;;;;0.90;0.60;;;17.80;70.00;;;;;;5115203;28;20016;-78
2021/06/05 01:19:42;;;;;;;2.83;0.60;;;17.90;68.50;;;;;;5115256;28;20514;-78
2021/06/05 01:22:10;;;;;;;2.75;0.40;;;17.90;69.00;;;;;;5114785;28;20027;-78
2021/06/05 01:24:52;;;;;;;3.17;0.45;;;18.00;70.70;;;;;;5114866;28;20028;-77
2021/06/05 01:27:41;;;;;;;1.17;0.45;;;18.00;68.80;;;;;;5096427;28;20110;-77
2021/06/05 01:30:24;;;;;;;1.33;0.50;;;18.00;67.70;;;;;;5114701;28;20396;-77
2021/06/05 01:32:50;;;;;;;1.80;0.55;;;18.00;67.60;;;;;;5114980;28;20111;-77
2021/06/05 01:35:16;;;;;;;0.50;0.50;;;18.00;67.50;;;;;;5096372;28;20022;-78
2021/06/05 01:37:43;;;;;;;0.65;0.40;;;18.10;67.50;;;;;;5114921;28;20019;-79
2021/06/05 01:40:11;;;;;;;1.23;0.50;;;18.00;67.90;;;;;;5095854;28;20123;-79
2021/06/05 01:42:39;;;;;;;1.17;0.50;;;18.00;67.60;;;;;;5114626;28;20028;-79
2021/06/05 01:45:11;;;;;;;1.38;0.50;;;18.00;67.80;;;;;;5114662;28;20016;-78
2021/06/05 01:47:37;;;;;;;1.33;0.50;;;18.00;67.20;;;;;;5095261;28;20072;-79
2021/06/05 01:50:07;;;;;;;1.33;0.82;;;17.90;67.20;;;;;;5114558;28;20065;-79
2021/06/05 01:52:35;;;;;;;1.80;0.40;;;17.90;67.60;;;;;;5114188;28;20048;-78
2021/06/05 01:55:15;;;;;;;0.30;0.30;;;17.90;67.30;;;;;;5114486;28;20024;-78
2021/06/05 01:57:46;;;;;;;0.88;0.45;;;18.00;68.10;;;;;;5114407;28;20102;-77
2021/06/05 02:00:21;;;;;;;0.63;0.50;;;17.90;68.60;;;;;;5114207;28;20073;-77
2021/06/05 02:02:46;;;;;;;3.05;0.70;;;18.00;69.20;;;;;;5095993;28;20476;-77
2021/06/05 02:05:12;;;;;;;1.08;0.52;;;17.90;69.80;;;;;;5114168;28;20099;-77
2021/06/05 02:07:38;;;;;;;1.67;0.40;;;18.00;70.80;;;;;;5114099;28;20387;-77
2021/06/05 02:10:11;;;;;;;0.88;0.50;;;18.00;70.90;;;;;;5114051;28;20036;-77
2021/06/05 02:12:38;;;;;;;1.02;0.40;;;18.00;70.30;;;;;;5113846;28;20027;-77
2021/06/05 02:15:12;;;;;;;2.50;0.52;;;18.00;70.20;;;;;;5113904;28;20024;-77
2021/06/05 02:17:41;;;;;;;0.82;0.47;;;18.00;70.00;;;;;;5095788;28;20114;-77
2021/06/05 02:20:17;;;;;;;0.57;0.30;;;18.00;70.00;;;;;;5113889;28;20066;-78
2021/06/05 02:22:44;;;;;;;1.23;0.50;;;18.00;69.70;;;;;;5113948;28;20023;-78
2021/06/05 02:25:13;;;;;;;1.90;0.45;;;18.10;69.50;;;;;;5113735;28;20032;-78
2021/06/05 02:27:40;;;;;;;1.02;0.60;;;18.10;68.80;;;;;;5113633;28;20067;-79
2021/06/05 02:30:09;;;;;;;1.00;0.50;;;18.00;68.40;;;;;;5113637;28;20046;-79
2021/06/05 02:32:38;;;;;;;0.70;0.30;;;18.10;68.50;;;;;;5113664;28;20032;-78
2021/06/05 02:35:10;;;;;;;2.20;0.50;;;18.10;68.10;;;;;;5113603;28;20020;-78
2021/06/05 02:37:36;;;;;;;1.20;0.50;;;18.00;67.50;;;;;;5113521;28;20483;-79
2021/06/05 02:40:11;;;;;;;2.17;0.57;;;18.10;67.40;;;;;;5113390;28;20024;-78
2021/06/05 02:42:39;;;;;;;0.75;0.30;;;18.10;67.10;;;;;;5113553;28;20023;-78
2021/06/05 02:45:13;;;;;;;1.75;0.43;;;18.10;66.50;;;;;;5113277;28;20181;-77
2021/06/05 02:47:38;;;;;;;0.40;0.40;;;18.10;66.20;;;;;;5113183;28;20020;-77
2021/06/05 02:50:08;;;;;;;0.88;0.32;;;18.10;66.00;;;;;;5112907;28;20073;-77
2021/06/05 02:52:34;;;;;;;0.60;0.30;;;18.10;66.00;;;;;;5112856;28;20039;-77
2021/06/05 02:55:13;;;;;;;1.35;0.35;;;18.20;65.90;;;;;;5094643;28;20361;-77
2021/06/05 02:57:39;;;;;;;1.10;0.45;;;18.10;66.20;;;;;;5113047;28;20107;-77
2021/06/05 03:00:12;;;;;;;1.02;0.57;;;18.10;66.60;;;;;;5113149;28;20032;-76
2021/06/05 03:02:37;;;;;;;0.50;0.30;;;18.10;66.80;;;;;;5113174;28;20019;-77
2021/06/05 03:05:04;;;;;;;0.90;0.40;;;18.10;66.90;;;;;;5112988;28;20073;-77
2021/06/05 03:07:30;;;;;;;1.13;0.52;;;18.00;66.80;;;;;;5112989;28;20062;-77
2021/06/05 03:09:55;;;;;;;0.43;0.20;;;18.10;67.00;;;;;;5112905;28;20067;-77
2021/06/05 03:12:21;;;;;;;0.77;0.35;;;18.00;67.10;;;;;;5112939;28;20118;-77
2021/06/05 03:14:46;;;;;;;0.70;0.30;;;18.00;67.10;;;;;;5094452;28;20028;-77
2021/06/05 03:17:12;;;;;;;0.90;0.20;;;18.00;67.10;;;;;;5113220;28;20368;-78
2021/06/05 03:19:38;;;;;;;1.30;0.40;;;18.00;67.40;;;;;;5112894;28;20020;-78
2021/06/05 03:22:05;;;;;;;2.40;0.40;;;18.00;67.50;;;;;;5112964;28;20023;-79
2021/06/05 03:24:31;;;;;;;0.80;0.30;;;18.00;67.30;;;;;;5128505;27;20039;-76
2021/06/05 03:26:56;;;;;;;1.08;0.30;;;18.00;67.10;;;;;;5136504;27;20046;-78
2021/06/05 03:29:23;;;;;;;0.20;0.20;;;18.10;66.90;;;;;;5112780;28;20031;-77
2021/06/05 03:31:49;;;;;;;0.65;0.43;;;18.00;66.70;;;;;;5112583;28;20420;-79
2021/06/05 03:34:15;;;;;;;0.40;0.30;;;18.00;66.70;;;;;;5094493;28;20038;-77
2021/06/05 03:36:41;;;;;;;2.08;0.38;;;18.00;66.50;;;;;;5112653;28;20020;-79
2021/06/05 03:39:07;;;;;;;0.20;0.20;;;18.00;65.60;;;;;;5112712;28;20024;-78
2021/06/05 03:41:34;;;;;;;0.20;0.20;;;17.90;65.70;;;;;;5112852;28;20062;-80
2021/06/05 03:44:00;;;;;;;0.32;0.20;;;17.90;65.60;;;;;;5093990;28;20035;-78
2021/06/05 03:46:26;;;;;;;0.20;0.20;;;18.00;65.60;;;;;;5112735;28;20023;-78
2021/06/05 03:48:51;;;;;;;0.55;0.20;;;17.90;65.50;;;;;;5112344;28;20078;-79
2021/06/05 03:51:17;;;;;;;0.73;0.30;;;18.00;64.70;;;;;;5112496;28;20035;-78
2021/06/05 03:53:43;;;;;;;0.45;0.32;;;18.00;64.50;;;;;;5112410;28;20063;-79
2021/06/05 03:56:08;;;;;;;0.80;0.50;;;18.00;64.50;;;;;;5112466;28;20509;-80
2021/06/05 03:58:39;;;;;;;1.85;0.32;;;18.00;63.80;;;;;;5112440;28;20430;-78
2021/06/05 04:01:08;;;;;;;0.75;0.30;;;18.10;62.20;;;;;;5112450;28;20102;-79
2021/06/05 04:03:34;;;;;;;0.30;0.20;;;18.10;60.70;;;;;;5112240;28;20034;-80
2021/06/05 04:05:59;;;;;;;0.63;0.30;;;18.20;62.20;;;;;;5112337;28;20023;-80
2021/06/05 04:08:25;;;;;;;0.45;0.20;;;18.00;63.20;;;;;;5112353;28;20059;-79
2021/06/05 04:10:50;;;;;;;2.08;0.40;;;18.00;63.40;;;;;;5114254;28;20540;-80
2021/06/05 04:13:16;;;;;;;0.57;0.32;;;17.90;63.40;;;;;;5116552;28;20023;-77
2021/06/05 04:15:42;;;;;;;0.85;0.32;;;17.90;63.70;;;;;;5116157;28;20024;-78
2021/06/05 04:18:20;;;;;;;1.17;0.43;;;17.90;63.30;;;;;;5116402;28;20039;-78
2021/06/05 04:20:45;;;;;;;0.55;0.30;;;18.00;63.30;;;;;;5116397;28;20027;-79
2021/06/05 04:23:12;;;;;;;0.30;0.30;;;18.00;63.30;;;;;;5116194;28;20023;-78
2021/06/05 04:25:38;;;;;;;0.85;0.30;;;18.00;63.80;;;;;;5116312;28;20394;-78
2021/06/05 04:28:05;;;;;;;0.65;0.30;;;18.00;64.00;;;;;;5115991;28;20486;-77
2021/06/05 04:30:32;;;;;;;2.42;0.60;;;18.00;63.80;;;;;;5116151;28;20111;-78
2021/06/05 04:32:58;;;;;;;0.70;0.30;;;18.00;63.70;;;;;;5097650;28;20105;-77
2021/06/05 04:35:23;;;;;;;0.98;0.32;;;18.10;64.20;;;;;;5115943;28;20063;-81
2021/06/05 04:37:49;;;;;;;1.35;0.30;;;18.10;64.20;;;;;;5115892;28;20042;-78
2021/06/05 04:40:15;;;;;;;0.63;0.43;;;18.00;64.40;;;;;;5115872;28;20031;-78
2021/06/05 04:42:41;;;;;;;0.57;0.30;;;18.00;64.60;;;;;;5115821;28;20045;-78
2021/06/05 04:45:08;;;;;;;1.73;0.50;;;18.10;64.80;;;;;;5115630;28;20110;-78
2021/06/05 04:47:34;;;;;;;1.00;0.50;;;18.10;64.80;;;;;;5115701;28;20024;-78
2021/06/05 04:50:00;;;;;;;0.38;0.38;;;18.20;64.70;;;;;;5115817;28;20102;-78
2021/06/05 04:52:25;;;;;;;2.28;0.45;;;18.30;64.80;;;;;;5115604;28;20150;-79
2021/06/05 04:54:51;;;;;;;0.38;0.30;;;18.30;64.60;;;;;;5115532;28;20497;-79
2021/06/05 04:57:17;;;;;;;1.45;0.50;;;18.30;64.60;;;;;;5115316;28;20445;-78
2021/06/05 04:59:43;;;;;;;1.05;0.70;;;18.30;64.70;;;;;;5115538;28;20064;-79
2021/06/05 05:02:09;;;;;;;0.93;0.43;;;18.40;64.40;;;;;;5115625;28;20471;-78
2021/06/05 05:04:34;;;;;;;2.40;0.45;;;18.50;64.60;;;;;;5115423;28;20023;-79
2021/06/05 05:07:00;;;;;;;2.53;0.60;;;18.60;64.30;;;;;;5115363;28;20468;-79
2021/06/05 05:09:26;;;;;;;0.65;0.50;;;18.60;64.10;;;;;;5115150;28;20027;-78
2021/06/05 05:11:51;;;;;;;2.42;0.47;;;18.60;64.10;;;;;;5115161;28;20062;-78
2021/06/05 05:14:18;;;;;;;0.60;0.47;;;18.60;64.30;;;;;;5115115;28;20111;-78
2021/06/05 05:16:44;;;;;;;1.00;0.70;;;18.60;64.60;;;;;;5096805;28;20110;-79
2021/06/05 05:19:10;;;;;;;8.73;0.77;;;18.60;64.50;;;;;;5115193;28;20411;-79
2021/06/05 05:21:35;;;;;;;1.30;0.40;;;18.60;64.20;;;;;;5115116;28;20106;-78
2021/06/05 05:24:01;;;;;;;4.97;0.57;;;18.60;64.50;;;;;;5115007;28;20380;-79
2021/06/05 05:26:27;;;;;;;2.45;0.60;;;18.50;64.90;;;;;;5115063;28;20023;-78
2021/06/05 05:28:54;;;;;;;1.48;0.60;;;18.60;65.20;;;;;;5114723;28;20364;-79
2021/06/05 05:31:23;;;;;;;2.90;0.70;;;18.60;65.20;;;;;;5114957;28;20047;-79
2021/06/05 05:33:49;;;;;;;1.08;0.65;;;18.60;65.30;;;;;;5114592;28;20106;-79
2021/06/05 05:36:24;;;;;;;2.40;0.60;;;18.60;65.50;;;;;;5114712;28;20023;-79
2021/06/05 05:38:51;;;;;;;2.20;0.57;;;18.60;66.30;;;;;;5096107;28;20053;-79
2021/06/05 05:41:18;;;;;;;1.33;0.57;;;18.60;66.30;;;;;;5114768;28;20045;-78
2021/06/05 05:43:44;;;;;;;3.15;0.55;;;18.70;66.50;;;;;;5114478;28;20069;-78
2021/06/05 05:46:10;;;;;;;2.65;0.70;;;18.70;66.30;;;;;;5114386;28;20088;-78
2021/06/05 05:48:37;;;;;;;3.38;0.68;;;18.70;66.40;;;;;;5095941;28;20031;-79
2021/06/05 05:51:04;;;;;;;3.47;0.88;;;18.60;66.80;;;;;;5114274;28;20045;-79
2021/06/05 05:53:30;;;;;;;1.77;0.80;;;18.60;66.80;;;;;;5114332;28;20039;-79
2021/06/05 05:55:57;;;;;;;1.00;0.63;;;18.50;67.10;;;;;;5095712;28;20022;-79
2021/06/05 05:58:24;;;;;;;1.83;0.82;;;18.60;66.90;;;;;;5113928;28;20016;-78
2021/06/05 06:00:51;;;;;;;2.63;0.90;;;18.60;67.00;;;;;;5113972;28;20019;-78
2021/06/05 06:03:18;;;;;;;1.67;0.47;;;18.60;67.40;;;;;;5113965;28;20468;-78
2021/06/05 06:05:44;;;;;;;2.10;0.60;;;18.60;67.00;;;;;;5114223;28;20020;-77
2021/06/05 06:08:12;;;;;;;1.38;0.90;;;18.60;67.40;;;;;;5113904;28;20024;-77
2021/06/05 06:10:38;;;;;;;0.98;0.60;;;18.60;67.30;;;;;;5113989;28;20024;-77
2021/06/05 06:13:05;;;;;;;0.85;0.50;;;18.70;67.10;;;;;;5113919;28;20034;-78
2021/06/05 06:15:32;;;;;;;1.10;0.70;;;18.90;66.60;;;;;;5113790;28;20107;-78
2021/06/05 06:17:59;;;;;;;2.45;0.65;;;19.00;66.20;;;;;;5113687;28;20023;-78
2021/06/05 06:20:29;;;;;;;1.40;0.55;;;19.10;66.50;;;;;;5113831;28;20019;-77
2021/06/05 06:22:55;;;;;;;1.88;0.65;;;19.20;66.60;;;;;;5113745;28;20468;-78
2021/06/05 06:25:23;;;;;;;2.15;0.70;;;19.30;66.80;;;;;;5113739;28;20028;-76
2021/06/05 06:27:49;;;;;;;2.53;0.63;;;19.40;66.60;;;;;;5095172;28;20084;-77
2021/06/05 06:30:19;;;;;;;3.00;0.60;;;19.30;67.10;;;;;;5113762;28;20035;-77
2021/06/05 06:32:51;;;;;;;2.28;0.75;;;19.30;67.10;;;;;;5113203;28;20027;-79
2021/06/05 06:35:18;;;;;;;3.70;0.77;;;19.30;67.00;;;;;;5113699;28;20015;-80
2021/06/05 06:37:43;;;;;;;2.70;0.60;;;19.20;67.30;;;;;;5113825;28;20015;-79
2021/06/05 06:40:10;;;;;;;1.85;0.80;;;19.20;67.10;;;;;;5113481;28;20023;-79
2021/06/05 06:42:35;;;;;;;1.80;0.60;;;19.20;67.50;;;;;;5113642;28;20024;-79
2021/06/05 06:45:02;;;;;;;1.58;0.50;;;19.30;67.70;;;;;;5113196;28;20114;-80
2021/06/05 06:47:28;;;;;;;3.47;0.80;;;19.40;67.80;;;;;;5113811;28;20025;-80
2021/06/05 06:49:53;;;;;;;0.80;0.45;;;19.50;67.80;;;;;;5095210;28;20042;-79
2021/06/05 06:52:24;;;;;;;1.38;0.75;;;19.60;67.70;;;;;;5095861;28;20120;-79
2021/06/05 06:54:50;;;;;;;1.42;0.70;;;19.60;67.70;;;;;;5117712;28;20035;-78
2021/06/05 06:57:16;;;;;;;2.05;0.65;;;19.70;68.00;;;;;;5136861;27;20024;-78
2021/06/05 06:59:42;;;;;;;1.90;0.60;;;19.70;67.80;;;;;;5123370;27;20110;-80
2021/06/05 07:02:08;;;;;;;1.20;0.80;;;19.80;67.60;;;;;;5113327;28;20031;-81
2021/06/05 07:04:33;;;;;;;1.50;0.88;;;19.80;67.30;;;;;;5113288;28;20110;-80
2021/06/05 07:06:59;;;;;;;1.58;0.70;;;19.90;67.40;;;;;;5094503;28;20054;-80
2021/06/05 07:09:25;;;;;;;2.72;0.98;;;19.90;67.50;;;;;;5095152;28;20039;-76
2021/06/05 07:11:50;;;;;;;1.45;0.68;;;19.80;67.30;;;;;;5113079;28;20053;-76
2021/06/05 07:14:16;;;;;;;1.27;0.93;;;19.80;67.50;;;;;;5113251;28;20325;-75
2021/06/05 07:16:41;;;;;;;2.15;0.90;;;19.90;68.20;;;;;;5112992;28;20019;-76
2021/06/05 07:19:07;;;;;;;3.38;0.93;;;19.90;68.20;;;;;;5112418;28;20031;-77
2021/06/05 07:21:33;;;;;;;5.55;0.85;;;20.00;67.90;;;;;;5113420;28;20510;-77
2021/06/05 07:23:59;;;;;;;1.38;0.82;;;20.10;67.60;;;;;;5113903;28;20027;-77
2021/06/05 07:26:26;;;;;;;1.80;0.80;;;20.20;67.60;;;;;;5118475;28;20016;-74
2021/06/05 07:28:56;;;;;;;2.10;1.05;;;20.30;67.50;;;;;;5096654;28;20043;-76
2021/06/05 07:31:25;;;;;;;1.75;0.80;;;20.40;67.70;;;;;;5112934;28;20026;-75
2021/06/05 07:33:51;;;;;;;2.83;0.60;;;20.50;68.10;;;;;;5112550;28;20186;-75
2021/06/05 07:36:25;;;;;;;9.75;2.33;;;20.50;67.20;;;;;;5112882;28;20103;-74
2021/06/05 07:38:51;;;;;;;9.13;2.05;;;20.60;68.70;;;;;;5112691;28;20076;-75
2021/06/05 07:41:17;;;;;;;7.68;1.40;;;20.70;68.60;;;;;;5113231;28;20024;-75
2021/06/05 07:43:42;;;;;;;9.60;1.15;;;20.90;68.50;;;;;;5112656;28;20514;-74
2021/06/05 07:46:08;;;;;;;4.78;0.70;;;21.00;67.20;;;;;;5115248;28;20422;-74
2021/06/05 07:48:35;;;;;;;2.65;1.02;;;21.00;66.60;;;;;;5117341;28;20028;-75
2021/06/05 07:51:01;;;;;;;8.52;2.20;;;21.10;68.40;;;;;;5116824;28;20380;-75
2021/06/05 07:53:27;;;;;;;64.43;14.02;;;21.20;67.80;;;;;;5116699;28;20056;-76
2021/06/05 07:55:53;;;;;;;13.23;3.33;;;21.30;67.50;;;;;;5097874;28;20031;-74
2021/06/05 07:58:19;;;;;;;25.05;6.35;;;21.30;65.60;;;;;;5116398;28;20069;-75
2021/06/05 08:00:44;;;;;;;15.13;2.88;;;21.40;66.40;;;;;;5116988;28;20031;-77
2021/06/05 08:03:10;;;;;;;9.93;2.00;;;21.40;65.10;;;;;;5116983;28;20201;-76
2021/06/05 08:05:38;;;;;;;11.50;2.33;;;21.40;64.90;;;;;;5116674;28;20044;-76
2021/06/05 08:08:05;;;;;;;3.40;1.20;;;21.30;65.00;;;;;;5116383;28;20024;-76
2021/06/05 08:10:31;;;;;;;1.63;1.10;;;21.30;64.60;;;;;;5116662;28;20024;-76
2021/06/05 08:12:57;;;;;;;2.10;1.00;;;21.20;64.20;;;;;;5116704;28;20020;-77
2021/06/05 08:15:27;;;;;;;4.13;1.35;;;21.20;63.60;;;;;;5116804;28;20476;-77
2021/06/05 08:17:53;;;;;;;5.05;1.10;;;21.20;63.70;;;;;;5116578;28;20039;-76
2021/06/05 08:20:24;;;;;;;3.72;1.02;;;21.20;63.10;;;;;;5116705;28;20066;-76
2021/06/05 08:22:49;;;;;;;3.78;1.00;;;21.20;63.00;;;;;;5116375;28;20034;-76
2021/06/05 08:25:15;;;;;;;2.05;0.90;;;21.30;63.20;;;;;;5116435;28;20020;-76
2021/06/05 08:27:42;;;;;;;2.30;0.65;;;21.40;62.50;;;;;;5116428;28;20038;-76
2021/06/05 08:30:13;;;;;;;2.00;0.93;;;21.50;62.40;;;;;;5098698;28;20076;-76
2021/06/05 08:32:39;;;;;;;1.40;0.90;;;21.40;62.00;;;;;;5118185;28;20373;-76
2021/06/05 08:35:05;;;;;;;2.75;1.00;;;21.10;62.10;;;;;;5116238;28;20057;-75
2021/06/05 08:37:31;;;;;;;2.08;0.95;;;21.10;63.30;;;;;;5116278;28;20026;-76
2021/06/05 08:39:56;;;;;;;4.57;1.10;;;21.10;62.40;;;;;;5116290;28;20032;-79
2021/06/05 08:42:34;;;;;;;2.15;1.10;;;21.10;62.10;;;;;;5114782;28;20491;-77
2021/06/05 08:45:00;;;;;;;3.97;0.75;;;21.20;61.70;;;;;;5116481;28;20077;-76
2021/06/05 08:47:33;;;;;;;3.05;0.95;;;21.30;61.20;;;;;;5117000;28;20023;-76
2021/06/05 08:50:03;;;;;;;3.92;1.27;;;21.20;61.40;;;;;;5115960;28;20036;-76
2021/06/05 08:52:56;;;;;;;2.80;1.05;;;21.20;61.60;;;;;;5116136;28;20047;-83
2021/06/05 08:55:37;;;;;;;3.20;1.13;;;21.30;61.90;;;;;;5116015;28;20380;-77
2021/06/05 08:58:16;;;;;;;2.00;0.90;;;21.30;61.30;;;;;;5115814;28;20384;-76
2021/06/05 09:00:47;;;;;;;3.92;1.13;;;21.40;61.30;;;;;;5116005;28;20031;-77
2021/06/05 09:03:19;;;;;;;2.58;1.15;;;21.40;61.00;;;;;;5115898;28;20036;-77
2021/06/05 09:06:07;;;;;;;2.90;1.17;;;21.40;61.10;;;;;;5116087;28;20026;-77
2021/06/05 09:08:33;;;;;;;0.80;0.80;;;21.30;61.90;;;;;;5115875;28;20027;-77
2021/06/05 09:11:01;;;;;;;3.15;1.00;;;21.40;60.70;;;;;;5115830;28;20038;-77
2021/06/05 09:13:28;;;;;;;1.45;0.77;;;21.50;60.50;;;;;;5115554;28;20156;-77
2021/06/05 09:16:19;;;;;;;1.38;0.88;;;21.50;59.90;;;;;;5115420;28;20111;-77
2021/06/05 09:18:55;;;;;;;2.60;1.15;;;21.60;59.70;;;;;;5098722;28;20098;-76
2021/06/05 09:21:44;;;;;;;;;;;21.60;59.70;;;;;;5115254;28;20364;-77
2021/06/05 09:24:18;;;;;;;1.42;0.80;;;21.50;59.20;;;;;;5095176;28;20279;-77
2021/06/05 09:27:06;;;;;;;1.10;0.60;;;21.50;59.90;;;;;;5115321;28;20019;-77
2021/06/05 09:29:55;;;;;;;5.72;1.35;;;21.60;59.60;;;;;;5096918;28;20515;-77
2021/06/05 09:32:33;;;;;;;4.25;1.00;;;21.60;59.20;;;;;;5115132;28;20031;-76
2021/06/05 09:35:04;;;;;;;2.05;1.20;;;21.50;60.30;;;;;;5114960;28;20020;-75
2021/06/05 09:37:47;;;;;;;6.13;1.52;;;21.30;60.70;;;;;;5115042;28;20061;-75
2021/06/05 09:40:33;;;;;;;5.20;1.15;;;21.40;60.50;;;;;;5115080;28;20429;-75
2021/06/05 09:43:08;;;;;;;3.33;1.30;;;21.50;60.00;;;;;;5115073;28;20031;-76
2021/06/05 09:45:41;;;;;;;2.13;0.70;;;21.50;60.70;;;;;;5115675;28;20024;-76
2021/06/05 09:48:19;;;;;;;2.95;0.82;;;21.50;60.20;;;;;;5114788;28;20084;-77
2021/06/05 09:50:47;;;;;;;4.53;1.33;;;21.50;60.10;;;;;;5114746;28;20024;-76
2021/06/05 09:53:18;;;;;;;6.55;1.00;;;21.40;60.50;;;;;;5114303;28;20480;-76
2021/06/05 09:55:46;;;;;;;3.65;1.02;;;21.30;60.70;;;;;;5114408;28;20027;-76
2021/06/05 09:58:37;;;;;;;2.53;1.00;;;21.10;61.80;;;;;;5113074;28;20027;-76
2021/06/05 10:01:13;;;;;;;2.00;1.23;;;21.10;62.00;;;;;;5114181;28;20020;-76
2021/06/05 10:03:38;;;;;;;3.53;1.33;;;21.00;62.80;;;;;;5096595;28;20027;-76
2021/06/05 10:06:41;;;;;;;2.45;1.23;;;21.00;63.00;;;;;;5091378;28;20024;-76
2021/06/05 10:09:30;;;;;;;2.63;1.15;;;20.80;63.20;;;;;;5090021;28;20487;-75
2021/06/05 10:12:10;;;;;;;5.45;1.23;;;20.70;63.90;;;;;;5093788;28;20095;-75
2021/06/05 10:14:38;;;;;;;2.72;1.20;;;20.60;65.00;;;;;;5093772;28;20358;-75
2021/06/05 10:17:19;;;;;;;0.93;0.82;;;20.50;65.20;;;;;;5093517;28;20020;-76
2021/06/05 10:20:04;;;;;;;1.65;0.90;;;20.50;65.30;;;;;;5094069;28;20024;-76
2021/06/05 10:22:30;;;;;;;2.10;1.10;;;20.40;65.80;;;;;;5075661;28;20055;-76
2021/06/05 10:25:17;;;;;;;1.20;1.00;;;20.40;65.90;;;;;;5093507;28;20028;-76
2021/06/05 10:27:45;;;;;;;3.05;1.20;;;20.30;67.30;;;;;;5093498;28;20162;-75
2021/06/05 10:30:26;;;;;;;1.95;0.95;;;20.20;69.40;;;;;;5093290;28;20492;-75
2021/06/05 10:32:52;;;;;;;4.05;0.95;;;19.80;70.90;;;;;;5093659;28;20107;-76
2021/06/05 10:35:30;;;;;;;2.45;1.27;;;19.70;71.50;;;;;;5093699;28;20063;-76
2021/06/05 10:38:05;;;;;;;2.00;0.80;;;19.70;72.10;;;;;;5093591;28;20389;-75
2021/06/05 10:40:31;;;;;;;4.47;1.42;;;19.50;73.00;;;;;;5091283;28;20081;-77
2021/06/05 10:42:56;;;;;;;5.40;1.90;;;19.40;73.50;;;;;;5093399;28;20031;-76
2021/06/05 10:45:35;;;;;;;3.47;1.38;;;19.30;75.30;;;;;;5093584;28;20032;-76
2021/06/05 10:48:05;;;;;;;4.50;1.30;;;19.20;76.40;;;;;;5093785;28;20690;-77
2021/06/05 10:50:49;;;;;;;6.63;1.50;;;19.20;76.50;;;;;;5093684;28;20032;-76
2021/06/05 10:53:37;;;;;;;4.03;1.67;;;19.00;78.80;;;;;;5093192;28;20044;-77
2021/06/05 10:56:13;;;;;;;4.95;1.35;;;18.70;80.90;;;;;;5093056;28;20056;-76
2021/06/05 10:58:47;;;;;;;3.55;1.10;;;18.50;80.30;;;;;;5093190;28;20023;-76
2021/06/05 11:01:22;;;;;;;2.15;1.10;;;18.40;79.90;;;;;;5093000;28;20237;-75
2021/06/05 11:03:54;;;;;;;1.33;0.80;;;18.30;80.40;;;;;;5092926;28;20028;-75
2021/06/05 11:06:26;;;;;;;2.33;0.75;;;18.40;80.80;;;;;;5091707;28;20465;-76
2021/06/05 11:08:52;;;;;;;1.83;1.08;;;18.50;80.20;;;;;;5092961;28;20059;-76
2021/06/05 11:12:00;;;;;;;2.28;0.98;;;18.50;80.50;;;;;;5092833;28;20020;-75
2021/06/05 11:14:35;;;;;;;1.70;0.75;;;18.50;79.40;;;;;;5050782;28;20029;-76
2021/06/05 11:17:01;;;;;;;1.20;0.77;;;18.50;80.00;;;;;;5050632;28;20093;-75
2021/06/05 11:19:33;;;;;;;1.25;0.75;;;18.50;80.40;;;;;;5073812;28;20028;-75
2021/06/05 11:22:06;;;;;;;2.03;0.88;;;18.60;81.50;;;;;;5092529;28;20033;-74
2021/06/05 11:24:32;;;;;;;6.22;1.25;;;18.60;82.50;;;;;;5092986;28;20076;-75
2021/06/05 11:27:00;;;;;;;0.90;0.80;;;18.60;82.60;;;;;;5092320;28;20043;-73
2021/06/05 11:29:29;;;;;;;2.70;1.13;;;18.70;82.80;;;;;;5092549;28;20036;-75
2021/06/05 11:31:56;;;;;;;1.35;0.60;;;18.80;82.90;;;;;;5074561;28;20384;-75
2021/06/05 11:34:33;;;;;;;1.50;0.90;;;18.90;82.90;;;;;;5092758;28;20357;-74
2021/06/05 11:37:03;;;;;;;3.92;1.33;;;19.00;82.50;;;;;;5092672;28;20032;-76
2021/06/05 11:39:29;;;;;;;1.10;0.50;;;19.10;82.00;;;;;;5092670;28;20020;-76
2021/06/05 11:41:57;;;;;;;5.78;0.77;;;19.20;81.60;;;;;;5092576;28;20030;-82
2021/06/05 11:44:37;;;;;;;3.25;0.70;;;19.40;81.20;;;;;;5092226;28;20024;-81
2021/06/05 11:47:21;;;;;;;1.23;0.70;;;19.50;79.90;;;;;;5092412;28;20034;-82
2021/06/05 11:50:01;;;;;;;1.42;0.55;;;19.60;78.40;;;;;;5092520;28;20043;-77
2021/06/05 11:52:30;;;;;;;1.58;0.55;;;19.70;77.70;;;;;;5092696;28;20036;-82
2021/06/05 11:55:06;;;;;;;1.42;0.30;;;19.80;76.70;;;;;;5091106;28;20028;-81
2021/06/05 11:57:35;;;;;;;1.08;0.50;;;19.80;75.60;;;;;;5092864;28;20132;-82
2021/06/05 12:00:08;;;;;;;2.47;0.40;;;19.80;75.20;;;;;;5092418;28;20024;-77
2021/06/05 12:02:41;;;;;;;1.50;0.38;;;19.80;75.10;;;;;;5090870;28;20024;-82
2021/06/05 12:05:19;;;;;;;1.45;0.35;;;19.70;72.80;;;;;;5090979;28;20388;-76
2021/06/05 12:07:46;;;;;;;3.45;0.80;;;19.50;72.30;;;;;;5092367;28;20031;-76
2021/06/05 12:10:29;;;;;;;1.27;0.60;;;19.30;72.50;;;;;;5109768;28;20047;-75
2021/06/05 12:12:54;;;;;;;1.65;0.40;;;19.30;72.20;;;;;;5111045;28;20414;-75
2021/06/05 12:15:31;;;;;;;0.45;0.45;;;19.50;73.00;;;;;;5112408;28;20118;-76
2021/06/05 12:18:20;;;;;;;0.40;0.40;;;19.70;71.70;;;;;;5114660;28;20034;-77
2021/06/05 12:20:50;;;;;;;0.68;0.30;;;20.10;70.10;;;;;;5114318;28;20020;-76
2021/06/05 12:23:36;;;;;;;0.52;0.30;;;20.50;68.10;;;;;;5115775;28;20023;-75
2021/06/05 12:26:06;;;;;;;;;;;20.70;67.00;;;;;;5114565;28;20027;-75
2021/06/05 12:28:38;;;;;;;1.90;0.50;;;20.90;67.60;;;;;;5112272;28;19914;-75
2021/06/05 12:31:19;;;;;;;0.98;0.40;;;21.10;66.90;;;;;;5115045;28;20028;-77
2021/06/05 12:34:07;;;;;;;2.38;0.38;;;21.20;66.90;;;;;;5117222;28;20479;-75
2021/06/05 12:36:44;;;;;;;0.70;0.40;;;21.30;66.50;;;;;;5116160;28;20023;-74
2021/06/05 12:39:13;;;;;;;0.50;0.40;;;21.40;65.30;;;;;;5115914;28;20472;-75
2021/06/05 12:41:42;;;;;;;3.17;0.28;;;21.40;66.30;;;;;;5116000;28;20032;-75
2021/06/05 12:44:16;;;;;;;0.52;0.20;;;21.30;65.60;;;;;;5116011;28;20016;-76
2021/06/05 12:46:43;;;;;;;0.50;0.50;;;21.30;66.70;;;;;;5115948;28;20047;-76
2021/06/05 12:49:15;;;;;;;0.28;0.28;;;21.20;63.70;;;;;;5115636;28;20536;-76
2021/06/05 12:51:47;;;;;;;1.55;0.43;;;21.10;64.40;;;;;;5115874;28;20035;-76
2021/06/05 12:54:31;;;;;;;0.65;0.40;;;20.80;65.50;;;;;;5115523;28;20047;-75
2021/06/05 12:57:18;;;;;;;0.90;0.50;;;20.40;67.50;;;;;;5115554;28;20439;-78
2021/06/05 12:59:44;;;;;;;2.42;0.43;;;20.20;70.00;;;;;;5115703;28;20019;-77
2021/06/05 13:02:30;;;;;;;1.13;0.32;;;19.90;68.90;;;;;;5115787;28;20441;-76
2021/06/05 13:05:17;;;;;;;0.85;0.40;;;19.80;69.00;;;;;;5115505;28;20015;-76